Time;durP1;ratioP1;P1;durP2;ratioP2;P2;SDS_P1;SDS_P2;PMS_P1;PMS_P2;Temp;Humidity;BMP_temperature;BMP_pressure;BME280_temperature;BME280_humidity;BME280_pressure;Samples;Min_cycle;Max_cycle;Signal;HPM_P1;HPM_P2
2023/09/01 00:00:47;;;;;;;6.15;1.50;;;12.60;99.90;;;;;;4993997;28;20043;-86
2023/09/01 00:03:13;;;;;;;5.30;1.73;;;12.60;99.90;;;;;;4972535;28;20118;-85
2023/09/01 00:05:38;;;;;;;5.93;1.50;;;12.60;99.90;;;;;;4995819;28;20046;-85
2023/09/01 00:08:05;;;;;;;3.72;1.25;;;12.60;99.90;;;;;;4982776;28;20039;-86
2023/09/01 00:10:31;;;;;;;10.60;1.70;;;12.50;99.90;;;;;;4988634;28;20247;-85
2023/09/01 00:12:57;;;;;;;6.15;1.55;;;12.50;99.90;;;;;;4985441;28;20113;-86
2023/09/01 00:15:23;;;;;;;3.58;1.20;;;12.60;99.90;;;;;;5000075;28;20071;-85
2023/09/01 00:17:49;;;;;;;5.15;1.30;;;12.60;99.90;;;;;;4990496;28;20069;-85
2023/09/01 00:20:15;;;;;;;4.18;1.77;;;12.50;99.90;;;;;;4996389;28;20042;-85
2023/09/01 00:22:41;;;;;;;3.88;1.00;;;12.50;99.90;;;;;;4991672;28;20041;-84
2023/09/01 00:25:07;;;;;;;3.78;1.13;;;12.50;99.90;;;;;;4982874;28;20188;-84
2023/09/01 00:27:32;;;;;;;4.82;1.50;;;12.50;99.90;;;;;;5008677;28;20034;-84
2023/09/01 00:29:58;;;;;;;6.57;1.40;;;12.50;99.90;;;;;;4988980;28;20049;-84
2023/09/01 00:32:24;;;;;;;6.53;1.60;;;12.50;99.90;;;;;;4980458;28;20042;-85
2023/09/01 00:34:57;;;;;;;3.28;1.30;;;12.50;99.90;;;;;;4990172;28;20045;-84
2023/09/01 00:37:23;;;;;;;3.17;1.17;;;12.50;99.90;;;;;;4987227;28;20042;-84
2023/09/01 00:39:49;;;;;;;4.70;1.08;;;12.40;99.90;;;;;;4990641;28;20037;-84
2023/09/01 00:42:15;;;;;;;4.00;1.20;;;12.40;99.90;;;;;;4969891;28;20038;-85
2023/09/01 00:44:40;;;;;;;6.00;1.60;;;12.40;99.90;;;;;;4973075;28;20111;-84
2023/09/01 00:47:06;;;;;;;5.32;1.33;;;12.40;99.90;;;;;;4990048;28;20039;-85
2023/09/01 00:49:35;;;;;;;4.05;1.33;;;12.40;99.90;;;;;;4993453;28;20038;-85
2023/09/01 00:52:01;;;;;;;4.25;1.30;;;12.40;99.90;;;;;;4981476;28;20344;-85
2023/09/01 00:54:27;;;;;;;4.28;1.40;;;12.40;99.90;;;;;;4987810;28;20847;-84
2023/09/01 00:56:54;;;;;;;3.50;1.13;;;12.30;99.90;;;;;;4992240;28;20045;-84
2023/09/01 00:59:20;;;;;;;4.05;1.42;;;12.30;99.90;;;;;;4985185;28;20070;-84
2023/09/01 01:01:47;;;;;;;4.20;1.45;;;12.30;99.90;;;;;;4988228;28;20109;-84
2023/09/01 01:04:14;;;;;;;3.97;1.50;;;12.30;99.90;;;;;;4995129;28;20150;-85
2023/09/01 01:06:40;;;;;;;4.53;1.20;;;12.20;99.90;;;;;;4990706;28;20186;-84
2023/09/01 01:09:25;;;;;;;4.38;1.05;;;12.30;99.90;;;;;;4977879;28;20424;-85
2023/09/01 01:12:34;;;;;;;3.38;1.35;;;12.20;99.90;;;;;;4991360;28;20540;-84
2023/09/01 01:15:08;;;;;;;3.97;1.73;;;12.20;99.90;;;;;;4974910;28;20104;-84
2023/09/01 01:17:44;;;;;;;5.88;2.05;;;12.20;99.90;;;;;;4983523;28;20039;-84
2023/09/01 01:20:17;;;;;;;5.85;1.63;;;12.20;99.90;;;;;;4993123;28;20122;-84
2023/09/01 01:22:57;;;;;;;3.75;1.60;;;12.20;99.90;;;;;;4989301;28;20038;-84
2023/09/01 01:25:23;;;;;;;4.72;1.60;;;12.10;99.90;;;;;;4977703;28;20054;-84
2023/09/01 01:27:48;;;;;;;4.50;1.55;;;12.10;99.90;;;;;;5004479;28;20122;-84
2023/09/01 01:30:14;;;;;;;4.20;1.42;;;12.10;99.90;;;;;;4983499;28;20121;-85
2023/09/01 01:32:42;;;;;;;2.72;1.20;;;12.10;99.90;;;;;;4959978;28;20035;-84
2023/09/01 01:35:20;;;;;;;6.10;1.65;;;12.10;99.90;;;;;;4984871;28;20038;-85
2023/09/01 01:37:56;;;;;;;3.97;1.60;;;12.10;99.90;;;;;;4984577;28;20130;-84
2023/09/01 01:40:24;;;;;;;6.75;1.63;;;12.10;99.90;;;;;;4982581;28;20055;-84
2023/09/01 01:42:53;;;;;;;9.20;2.03;;;12.10;99.90;;;;;;4994307;28;20477;-84
2023/09/01 01:45:22;;;;;;;4.00;1.52;;;12.30;99.90;;;;;;4991254;28;20045;-83
2023/09/01 01:47:49;;;;;;;3.75;1.77;;;12.00;99.90;;;;;;4988156;28;20802;-84
2023/09/01 01:50:15;;;;;;;6.53;2.13;;;12.00;99.90;;;;;;4988430;28;20038;-84
2023/09/01 01:52:40;;;;;;;4.35;1.70;;;12.00;99.90;;;;;;4978298;28;20046;-85
2023/09/01 01:55:07;;;;;;;5.43;1.50;;;12.00;99.90;;;;;;4994629;28;20125;-84
2023/09/01 01:57:33;;;;;;;5.18;1.75;;;12.00;99.90;;;;;;4983236;28;20050;-84
2023/09/01 01:59:59;;;;;;;2.85;1.52;;;12.00;99.90;;;;;;4987937;28;20053;-83
2023/09/01 02:02:25;;;;;;;5.55;2.25;;;11.90;99.90;;;;;;4981543;28;20038;-84
2023/09/01 02:04:50;;;;;;;3.50;1.55;;;11.90;99.90;;;;;;4966234;28;20466;-84
2023/09/01 02:07:16;;;;;;;5.90;1.88;;;11.90;99.90;;;;;;4975392;28;20038;-84
2023/09/01 02:09:42;;;;;;;5.35;1.63;;;11.90;99.90;;;;;;4986298;28;20042;-84
2023/09/01 02:12:08;;;;;;;5.32;1.75;;;11.90;99.90;;;;;;4981903;28;20176;-84
2023/09/01 02:14:35;;;;;;;6.30;1.83;;;11.90;99.90;;;;;;4987465;28;20038;-84
2023/09/01 02:17:03;;;;;;;6.15;2.30;;;11.90;99.90;;;;;;4985847;28;20047;-84
2023/09/01 02:19:29;;;;;;;3.72;1.70;;;11.90;99.90;;;;;;4989972;28;20083;-84
2023/09/01 02:21:55;;;;;;;6.53;2.05;;;11.90;99.90;;;;;;4981565;28;20117;-84
2023/09/01 02:24:21;;;;;;;6.60;1.88;;;11.90;99.90;;;;;;4984122;28;20066;-84
2023/09/01 02:26:46;;;;;;;5.95;2.03;;;11.80;99.90;;;;;;4979732;28;20042;-84
2023/09/01 02:29:12;;;;;;;7.88;2.30;;;11.90;99.90;;;;;;4984236;28;20045;-84
2023/09/01 02:31:38;;;;;;;6.03;2.10;;;11.80;99.90;;;;;;4985857;28;20466;-84
2023/09/01 02:34:05;;;;;;;5.80;2.00;;;11.80;99.90;;;;;;4975495;28;20074;-84
2023/09/01 02:36:35;;;;;;;6.22;1.55;;;11.70;99.90;;;;;;4987075;28;20058;-84
2023/09/01 02:39:01;;;;;;;5.35;1.88;;;11.70;99.90;;;;;;4981014;28;20056;-84
2023/09/01 02:41:28;;;;;;;5.55;2.53;;;11.70;99.90;;;;;;4971535;28;20074;-83
2023/09/01 02:43:54;;;;;;;4.70;2.08;;;11.70;99.90;;;;;;4981902;28;20070;-84
2023/09/01 02:46:20;;;;;;;4.68;2.03;;;11.70;99.90;;;;;;4973422;28;20030;-84
2023/09/01 02:48:46;;;;;;;4.40;1.90;;;11.80;99.90;;;;;;4959575;28;20454;-84
2023/09/01 02:51:12;;;;;;;5.85;2.70;;;11.80;99.90;;;;;;4970613;28;20047;-84
2023/09/01 02:53:39;;;;;;;5.10;2.08;;;11.80;99.90;;;;;;4992417;28;20504;-84
2023/09/01 02:56:05;;;;;;;6.78;2.42;;;11.80;99.90;;;;;;4988198;28;20565;-84
2023/09/01 02:58:31;;;;;;;3.63;1.33;;;11.80;99.90;;;;;;4982301;28;20113;-84
2023/09/01 03:00:57;;;;;;;3.80;1.52;;;11.70;99.90;;;;;;4982555;28;20050;-84
2023/09/01 03:03:23;;;;;;;5.28;2.20;;;11.80;99.90;;;;;;4990615;28;20046;-84
2023/09/01 03:05:50;;;;;;;5.70;2.90;;;11.70;99.90;;;;;;4969656;28;20121;-84
2023/09/01 03:08:23;;;;;;;3.38;1.85;;;11.70;99.90;;;;;;4982222;28;20040;-84
2023/09/01 03:10:49;;;;;;;7.47;1.75;;;11.70;99.90;;;;;;4977874;28;20041;-84
2023/09/01 03:13:15;;;;;;;5.32;1.98;;;11.70;99.90;;;;;;4984525;28;20082;-84
2023/09/01 03:15:41;;;;;;;5.15;2.25;;;11.70;99.90;;;;;;4982049;28;20042;-84
2023/09/01 03:18:10;;;;;;;3.88;1.65;;;11.60;99.90;;;;;;4976651;28;20049;-84
2023/09/01 03:20:39;;;;;;;9.02;2.75;;;11.60;99.90;;;;;;4977355;28;20489;-84
2023/09/01 03:23:05;;;;;;;4.85;1.80;;;11.60;99.90;;;;;;4968888;28;20485;-84
2023/09/01 03:25:31;;;;;;;5.47;2.00;;;11.60;99.90;;;;;;4981245;28;20066;-84
2023/09/01 03:27:57;;;;;;;5.97;1.75;;;11.60;99.90;;;;;;4996881;28;20048;-84
2023/09/01 03:30:22;;;;;;;5.65;1.55;;;11.60;99.90;;;;;;4996777;28;20037;-84
2023/09/01 03:32:49;;;;;;;4.63;1.80;;;11.60;99.90;;;;;;4991047;28;20062;-84
2023/09/01 03:35:14;;;;;;;6.78;1.63;;;11.60;99.90;;;;;;4984032;28;20089;-84
2023/09/01 03:37:41;;;;;;;4.55;1.70;;;11.60;99.90;;;;;;4969477;28;20074;-84
2023/09/01 03:40:09;;;;;;;6.35;2.40;;;11.60;99.90;;;;;;5005057;28;20054;-84
2023/09/01 03:42:35;;;;;;;5.07;1.80;;;11.60;99.90;;;;;;4992182;28;20038;-84
2023/09/01 03:45:01;;;;;;;5.55;1.92;;;11.60;99.90;;;;;;5007574;28;20117;-84
2023/09/01 03:47:26;;;;;;;6.35;2.45;;;11.60;99.90;;;;;;4991195;28;20039;-84
2023/09/01 03:49:52;;;;;;;3.72;1.73;;;11.50;99.90;;;;;;4988581;28;20066;-84
2023/09/01 03:52:18;;;;;;;6.85;2.78;;;11.50;99.90;;;;;;4991100;28;20782;-84
2023/09/01 03:54:44;;;;;;;5.25;2.05;;;11.50;99.90;;;;;;4985773;28;20038;-84
2023/09/01 03:57:09;;;;;;;7.88;1.80;;;11.50;99.90;;;;;;4990053;28;20041;-83
2023/09/01 03:59:35;;;;;;;5.38;2.08;;;11.50;99.90;;;;;;4984363;28;20077;-84
2023/09/01 04:02:01;;;;;;;5.18;2.20;;;11.50;99.90;;;;;;4995795;28;20123;-84
2023/09/01 04:04:27;;;;;;;5.28;2.15;;;11.50;99.90;;;;;;4983408;28;20160;-84
2023/09/01 04:06:53;;;;;;;4.43;1.92;;;11.40;99.90;;;;;;4982710;28;20066;-84
2023/09/01 04:09:19;;;;;;;5.55;2.30;;;11.40;99.90;;;;;;4992663;28;20042;-84
2023/09/01 04:11:45;;;;;;;3.25;1.27;;;11.40;99.90;;;;;;4988052;28;20084;-84
2023/09/01 04:14:11;;;;;;;7.07;2.75;;;11.40;99.90;;;;;;4971053;28;20047;-84
2023/09/01 04:16:38;;;;;;;5.68;2.90;;;11.40;99.90;;;;;;4988807;28;20042;-84
2023/09/01 04:19:04;;;;;;;6.22;2.13;;;11.40;99.90;;;;;;4968878;28;20069;-84
2023/09/01 04:21:30;;;;;;;3.65;1.40;;;11.40;99.90;;;;;;4981331;28;20470;-84
2023/09/01 04:23:56;;;;;;;4.72;1.98;;;11.40;99.90;;;;;;4988393;28;20037;-84
2023/09/01 04:26:22;;;;;;;3.33;1.75;;;11.40;99.90;;;;;;4984602;28;20038;-84
2023/09/01 04:28:48;;;;;;;5.65;2.20;;;11.40;99.90;;;;;;4993431;28;20089;-84
2023/09/01 04:31:28;;;;;;;6.13;1.98;;;11.30;99.90;;;;;;4986427;28;20409;-84
2023/09/01 04:33:54;;;;;;;4.50;2.30;;;11.30;99.90;;;;;;4983476;28;20039;-84
2023/09/01 04:36:20;;;;;;;5.68;2.65;;;11.30;99.90;;;;;;4982573;28;20069;-84
2023/09/01 04:38:46;;;;;;;4.28;1.95;;;11.30;99.90;;;;;;4985819;28;20058;-83
2023/09/01 04:41:13;;;;;;;5.15;1.63;;;11.20;99.90;;;;;;4980320;28;20133;-84
2023/09/01 04:43:38;;;;;;;5.00;2.25;;;11.20;99.90;;;;;;4973924;28;20042;-83
2023/09/01 04:46:05;;;;;;;6.05;2.40;;;11.20;99.90;;;;;;4978217;28;20030;-84
2023/09/01 04:48:31;;;;;;;8.85;1.98;;;11.20;99.90;;;;;;4985848;28;20041;-84
2023/09/01 04:50:57;;;;;;;4.35;1.95;;;11.20;99.90;;;;;;4981448;28;20089;-84
2023/09/01 04:53:23;;;;;;;5.38;2.00;;;11.20;99.90;;;;;;4976589;28;20101;-84
2023/09/01 04:55:49;;;;;;;4.72;1.50;;;11.20;99.90;;;;;;4987581;28;20498;-84
2023/09/01 04:58:15;;;;;;;3.47;1.70;;;11.30;99.90;;;;;;4981435;28;20038;-85
2023/09/01 05:00:41;;;;;;;4.20;1.40;;;11.20;99.90;;;;;;4988556;28;20030;-84
2023/09/01 05:03:07;;;;;;;3.60;1.90;;;11.30;99.90;;;;;;4989462;28;20038;-84
2023/09/01 05:05:33;;;;;;;5.85;2.60;;;11.30;99.90;;;;;;4982116;28;20034;-84
2023/09/01 05:07:59;;;;;;;6.75;2.92;;;11.30;99.90;;;;;;4980713;28;20840;-85
2023/09/01 05:10:24;;;;;;;5.78;2.20;;;11.20;99.90;;;;;;4986626;28;20057;-85
2023/09/01 05:12:50;;;;;;;4.53;2.03;;;11.30;99.90;;;;;;4994598;28;20389;-84
2023/09/01 05:15:16;;;;;;;4.97;2.22;;;11.20;99.90;;;;;;4987732;28;20034;-83
2023/09/01 05:17:41;;;;;;;4.00;1.70;;;11.20;99.90;;;;;;4985638;28;20050;-83
2023/09/01 05:20:07;;;;;;;4.80;2.17;;;11.20;99.90;;;;;;4982632;28;20038;-77
2023/09/01 05:22:36;;;;;;;4.68;2.65;;;11.20;99.90;;;;;;4988410;28;20050;-77
2023/09/01 05:25:02;;;;;;;5.32;1.60;;;11.30;99.90;;;;;;4977641;28;20080;-77
2023/09/01 05:27:28;;;;;;;5.22;2.05;;;11.30;99.90;;;;;;4981212;28;20049;-77
2023/09/01 05:29:54;;;;;;;6.95;2.63;;;11.30;99.90;;;;;;4980191;28;20031;-78
2023/09/01 05:32:21;;;;;;;6.07;3.05;;;11.30;99.90;;;;;;4983339;28;20375;-78
2023/09/01 05:34:47;;;;;;;6.63;2.50;;;11.30;99.90;;;;;;4979378;28;20066;-78
2023/09/01 05:37:13;;;;;;;7.28;2.75;;;11.30;99.90;;;;;;4987598;28;20180;-77
2023/09/01 05:39:39;;;;;;;6.57;2.30;;;11.30;99.90;;;;;;4973746;28;20062;-77
2023/09/01 05:42:06;;;;;;;4.45;1.67;;;11.30;99.90;;;;;;4982235;28;20122;-77
2023/09/01 05:44:32;;;;;;;5.93;2.30;;;11.30;99.90;;;;;;4984852;28;20103;-77
2023/09/01 05:46:58;;;;;;;4.72;1.98;;;11.40;99.90;;;;;;4978391;28;20042;-78
2023/09/01 05:49:24;;;;;;;6.07;2.50;;;11.40;99.90;;;;;;4983845;28;20972;-79
2023/09/01 05:51:50;;;;;;;5.75;1.95;;;11.40;99.90;;;;;;4976064;28;20042;-77
2023/09/01 05:54:19;;;;;;;3.13;1.75;;;11.40;99.90;;;;;;4981698;28;20050;-77
2023/09/01 05:56:46;;;;;;;5.35;2.10;;;11.50;99.90;;;;;;4988271;28;20081;-77
2023/09/01 05:59:12;;;;;;;11.00;3.22;;;11.50;99.90;;;;;;4986211;28;20093;-78
2023/09/01 06:01:38;;;;;;;6.68;2.72;;;11.50;99.90;;;;;;4980769;28;20398;-78
2023/09/01 06:04:04;;;;;;;8.10;3.08;;;11.60;99.90;;;;;;4988036;28;20129;-78
2023/09/01 06:06:31;;;;;;;6.18;2.97;;;11.60;99.90;;;;;;4994208;28;20034;-76
2023/09/01 06:09:00;;;;;;;7.47;3.20;;;11.60;99.90;;;;;;4978868;28;20118;-77
2023/09/01 06:11:26;;;;;;;6.25;3.00;;;11.70;99.90;;;;;;4983124;28;20076;-76
2023/09/01 06:13:52;;;;;;;8.20;3.83;;;11.70;99.90;;;;;;4979266;28;20075;-76
2023/09/01 06:16:17;;;;;;;6.10;2.70;;;11.80;99.90;;;;;;4988030;28;20038;-77
2023/09/01 06:18:43;;;;;;;5.13;2.60;;;11.80;99.90;;;;;;4986354;28;20042;-77
2023/09/01 06:21:10;;;;;;;5.82;2.83;;;11.80;99.90;;;;;;4982940;28;20445;-78
2023/09/01 06:23:44;;;;;;;7.38;3.05;;;11.80;99.90;;;;;;4980234;28;20163;-78
2023/09/01 06:26:14;;;;;;;2.83;1.38;;;11.80;99.90;;;;;;4980223;28;20457;-80
2023/09/01 06:28:40;;;;;;;6.70;2.25;;;11.80;99.90;;;;;;4980208;28;20065;-79
2023/09/01 06:31:07;;;;;;;9.85;2.60;;;11.90;99.90;;;;;;4982972;28;20476;-79
2023/09/01 06:33:32;;;;;;;7.18;2.72;;;11.90;99.90;;;;;;4980703;28;20081;-80
2023/09/01 06:35:58;;;;;;;6.47;3.05;;;11.90;99.90;;;;;;4969824;28;20078;-80
2023/09/01 06:38:24;;;;;;;5.50;2.63;;;12.00;99.90;;;;;;4970661;28;20085;-80
2023/09/01 06:40:49;;;;;;;7.43;2.42;;;12.00;99.90;;;;;;4971792;28;20482;-80
2023/09/01 06:43:15;;;;;;;5.80;2.08;;;12.10;99.90;;;;;;4971978;28;20042;-80
2023/09/01 06:45:40;;;;;;;6.32;2.15;;;12.20;99.90;;;;;;4971113;28;20034;-80
2023/09/01 06:48:06;;;;;;;8.45;2.38;;;12.20;99.90;;;;;;4971116;28;20042;-80
2023/09/01 06:50:32;;;;;;;7.03;2.28;;;12.30;99.90;;;;;;4971904;28;20049;-80
2023/09/01 06:52:58;;;;;;;6.35;2.33;;;12.40;99.90;;;;;;4970742;28;20042;-80
2023/09/01 06:55:24;;;;;;;7.07;2.75;;;12.40;99.90;;;;;;4971661;28;20093;-80
2023/09/01 06:57:50;;;;;;;7.03;2.50;;;12.50;99.90;;;;;;4969882;28;20035;-80
2023/09/01 07:00:16;;;;;;;8.05;2.08;;;12.60;99.90;;;;;;4971763;28;20035;-80
2023/09/01 07:02:41;;;;;;;7.18;2.33;;;12.70;99.90;;;;;;4979188;28;20038;-80
2023/09/01 07:05:07;;;;;;;4.75;1.60;;;12.70;99.90;;;;;;4981426;28;21499;-80
2023/09/01 07:07:33;;;;;;;5.28;2.10;;;12.80;99.90;;;;;;4973704;28;20038;-80
2023/09/01 07:09:58;;;;;;;5.55;2.30;;;12.80;99.90;;;;;;4969163;28;20185;-80
2023/09/01 07:12:24;;;;;;;5.05;2.05;;;12.90;99.90;;;;;;4988428;28;20037;-80
2023/09/01 07:14:49;;;;;;;5.43;1.52;;;13.00;99.90;;;;;;4968471;28;20039;-80
2023/09/01 07:17:20;;;;;;;5.50;1.73;;;13.00;99.90;;;;;;4968365;28;20422;-80
2023/09/01 07:19:46;;;;;;;7.13;2.33;;;13.10;99.90;;;;;;4969685;28;20477;-80
2023/09/01 07:22:12;;;;;;;6.63;1.35;;;13.10;99.90;;;;;;4968604;28;20073;-80
2023/09/01 07:24:37;;;;;;;6.32;1.98;;;13.20;99.90;;;;;;4970227;28;20051;-80
2023/09/01 07:27:05;;;;;;;5.90;1.27;;;13.20;99.90;;;;;;4970170;28;20472;-81
2023/09/01 07:29:31;;;;;;;3.67;1.23;;;13.30;99.90;;;;;;4971168;28;20043;-80
2023/09/01 07:31:56;;;;;;;4.68;1.83;;;13.40;99.90;;;;;;4970091;28;20038;-80
2023/09/01 07:34:22;;;;;;;4.47;1.80;;;13.50;99.90;;;;;;4970723;28;20478;-80
2023/09/01 07:36:47;;;;;;;5.88;1.50;;;13.50;99.90;;;;;;4969883;28;20082;-80
2023/09/01 07:39:13;;;;;;;6.53;1.42;;;13.60;99.90;;;;;;4970349;28;20042;-80
2023/09/01 07:41:40;;;;;;;5.18;1.35;;;13.60;99.90;;;;;;4971958;28;20026;-80
2023/09/01 07:44:06;;;;;;;2.67;1.13;;;13.70;99.90;;;;;;4970252;28;20058;-80
2023/09/01 07:46:33;;;;;;;8.40;1.75;;;13.90;99.90;;;;;;4971519;28;20047;-81
2023/09/01 07:48:59;;;;;;;5.35;1.35;;;13.90;99.90;;;;;;4974727;28;20067;-80
2023/09/01 07:51:25;;;;;;;8.43;1.70;;;13.90;99.90;;;;;;4976707;28;20053;-81
2023/09/01 07:53:51;;;;;;;5.00;1.10;;;14.10;99.90;;;;;;4970652;28;20121;-81
2023/09/01 07:56:16;;;;;;;5.18;1.35;;;14.20;99.90;;;;;;4974903;28;20071;-81
2023/09/01 07:58:42;;;;;;;7.32;1.23;;;14.30;99.90;;;;;;4969564;28;20133;-81
2023/09/01 08:01:07;;;;;;;5.82;1.63;;;14.30;99.90;;;;;;4972723;28;20413;-80
2023/09/01 08:03:33;;;;;;;6.32;1.10;;;14.40;99.90;;;;;;4972596;28;20543;-81
2023/09/01 08:05:59;;;;;;;7.05;1.13;;;14.50;99.90;;;;;;4970191;28;20049;-81
2023/09/01 08:08:25;;;;;;;4.53;1.00;;;14.60;99.90;;;;;;4971309;28;20051;-80
2023/09/01 08:10:54;;;;;;;4.80;1.10;;;14.70;99.90;;;;;;4972123;28;20038;-80
2023/09/01 08:13:22;;;;;;;4.93;1.25;;;14.70;99.90;;;;;;4974962;28;20182;-81
2023/09/01 08:15:47;;;;;;;6.53;1.00;;;14.90;99.90;;;;;;4992694;28;20049;-80
2023/09/01 08:18:13;;;;;;;4.32;1.17;;;14.80;99.90;;;;;;4973684;28;20377;-81
2023/09/01 08:20:40;;;;;;;4.88;1.42;;;14.90;99.90;;;;;;4974422;28;20110;-80
2023/09/01 08:23:06;;;;;;;6.35;1.30;;;15.10;99.90;;;;;;4974111;28;20114;-81
2023/09/01 08:25:32;;;;;;;7.20;1.10;;;15.10;99.90;;;;;;4973821;28;20114;-81
2023/09/01 08:28:03;;;;;;;5.15;1.20;;;15.30;99.90;;;;;;4976332;28;20134;-81
2023/09/01 08:30:29;;;;;;;6.68;1.63;;;15.40;99.90;;;;;;4975277;28;20045;-81
2023/09/01 08:32:55;;;;;;;5.38;1.65;;;15.50;99.90;;;;;;4982735;28;20038;-81
2023/09/01 08:35:20;;;;;;;4.20;1.13;;;15.60;99.90;;;;;;4972518;28;21017;-80
2023/09/01 08:37:46;;;;;;;6.65;1.38;;;15.60;99.90;;;;;;4973497;28;20050;-81
2023/09/01 08:40:12;;;;;;;5.60;1.50;;;15.70;99.90;;;;;;4974410;28;20042;-81
2023/09/01 08:42:46;;;;;;;5.70;1.23;;;15.80;99.90;;;;;;4974245;28;20058;-81
2023/09/01 08:45:14;;;;;;;5.45;1.45;;;15.90;99.90;;;;;;4974262;28;20046;-81
2023/09/01 08:47:47;;;;;;;6.20;1.20;;;16.00;99.90;;;;;;4973646;28;20055;-81
2023/09/01 08:50:14;;;;;;;6.07;1.33;;;16.10;99.90;;;;;;4975789;28;20113;-81
2023/09/01 08:52:45;;;;;;;6.75;0.93;;;16.20;99.90;;;;;;4972292;28;20050;-81
2023/09/01 08:55:12;;;;;;;4.63;0.90;;;16.30;99.90;;;;;;4973557;28;20071;-81
2023/09/01 08:57:39;;;;;;;2.78;0.75;;;16.30;99.90;;;;;;4974007;28;20043;-81
2023/09/01 09:00:07;;;;;;;2.40;0.80;;;16.30;99.90;;;;;;4973965;28;20102;-81
2023/09/01 09:02:34;;;;;;;4.10;1.20;;;16.40;99.90;;;;;;4976105;28;20047;-81
2023/09/01 09:05:00;;;;;;;9.73;1.80;;;16.40;99.90;;;;;;4974137;28;20545;-81
2023/09/01 09:07:25;;;;;;;5.78;1.40;;;16.50;99.90;;;;;;4974004;28;20129;-81
2023/09/01 09:09:56;;;;;;;4.72;1.00;;;16.50;99.90;;;;;;4972966;28;20049;-81
2023/09/01 09:12:23;;;;;;;4.45;0.88;;;16.60;99.90;;;;;;4972667;28;20121;-81
2023/09/01 09:14:52;;;;;;;3.65;1.20;;;16.60;99.90;;;;;;4972403;28;20043;-81
2023/09/01 09:17:20;;;;;;;4.68;1.30;;;16.70;99.90;;;;;;4983966;28;20039;-81
2023/09/01 09:19:59;;;;;;;5.50;1.10;;;16.70;99.90;;;;;;4972948;28;20050;-81
2023/09/01 09:22:25;;;;;;;6.07;1.40;;;16.80;99.90;;;;;;4978517;28;20066;-81
2023/09/01 09:24:51;;;;;;;5.40;1.00;;;16.90;99.90;;;;;;4973247;28;20039;-81
2023/09/01 09:27:17;;;;;;;3.00;1.10;;;16.90;99.90;;;;;;4972776;28;20498;-81
2023/09/01 09:29:45;;;;;;;4.05;1.45;;;17.00;99.90;;;;;;4972969;28;20113;-81
2023/09/01 09:32:26;;;;;;;4.35;0.82;;;17.00;99.90;;;;;;4976637;28;20042;-81
2023/09/01 09:35:09;;;;;;;8.25;1.10;;;17.10;99.90;;;;;;4981968;28;20058;-81
2023/09/01 09:37:35;;;;;;;7.82;0.98;;;17.10;99.90;;;;;;4971819;28;20077;-81
2023/09/01 09:40:15;;;;;;;5.32;1.10;;;17.20;99.90;;;;;;4970765;28;20126;-81
2023/09/01 09:42:42;;;;;;;5.68;1.20;;;17.20;99.90;;;;;;4978442;28;20395;-81
2023/09/01 09:45:26;;;;;;;4.45;1.33;;;17.30;99.90;;;;;;4971423;28;20049;-81
2023/09/01 09:47:53;;;;;;;4.30;1.10;;;17.30;99.90;;;;;;4972272;28;20074;-81
2023/09/01 09:50:20;;;;;;;3.55;1.08;;;17.40;99.90;;;;;;4972979;28;20390;-81
2023/09/01 09:52:49;;;;;;;3.47;1.00;;;17.40;99.90;;;;;;4973346;28;20045;-81
2023/09/01 09:55:44;;;;;;;6.47;1.15;;;17.40;99.90;;;;;;4977767;28;20101;-81
2023/09/01 09:58:11;;;;;;;4.20;1.20;;;17.40;99.90;;;;;;4971015;28;20050;-81
2023/09/01 10:00:51;;;;;;;4.70;1.00;;;17.30;99.90;;;;;;4972005;28;20035;-81
2023/09/01 10:03:18;;;;;;;2.80;1.00;;;17.40;99.90;;;;;;4976846;28;20509;-81
2023/09/01 10:05:45;;;;;;;5.22;1.30;;;17.40;99.90;;;;;;4972918;28;20053;-81
2023/09/01 10:08:12;;;;;;;4.85;1.52;;;17.40;99.90;;;;;;4970488;28;20045;-81
2023/09/01 10:10:38;;;;;;;6.07;1.25;;;17.40;99.90;;;;;;4972792;28;20106;-81
2023/09/01 10:13:06;;;;;;;7.65;1.55;;;17.40;99.90;;;;;;4971743;28;20043;-81
2023/09/01 10:15:34;;;;;;;4.03;1.23;;;17.40;99.90;;;;;;4976260;28;20039;-81
2023/09/01 10:18:04;;;;;;;5.05;1.33;;;17.40;99.90;;;;;;4970820;28;20039;-81
2023/09/01 10:20:39;;;;;;;4.80;1.10;;;17.50;99.90;;;;;;4971958;28;20034;-81
2023/09/01 10:23:05;;;;;;;5.93;1.10;;;17.50;99.90;;;;;;4971804;28;20066;-81
2023/09/01 10:25:31;;;;;;;5.28;1.45;;;17.50;99.90;;;;;;4978009;28;20085;-81
2023/09/01 10:28:13;;;;;;;4.80;1.00;;;17.50;99.90;;;;;;4970797;28;20050;-81
2023/09/01 10:30:41;;;;;;;4.75;1.30;;;17.50;99.90;;;;;;4971859;28;20038;-81
2023/09/01 10:33:14;;;;;;;6.10;1.27;;;17.60;99.90;;;;;;4973456;28;20073;-81
2023/09/01 10:35:50;;;;;;;4.65;1.00;;;17.50;99.90;;;;;;4987019;28;20039;-81
2023/09/01 10:38:21;;;;;;;4.50;1.33;;;17.50;99.90;;;;;;4971557;28;20047;-81
2023/09/01 10:40:48;;;;;;;8.43;1.35;;;17.60;99.90;;;;;;4972473;28;20041;-81
2023/09/01 10:43:41;;;;;;;3.85;1.20;;;17.60;99.90;;;;;;4971735;28;20046;-81
2023/09/01 10:46:13;;;;;;;6.25;1.00;;;17.70;99.90;;;;;;4970866;28;20057;-81
2023/09/01 10:48:52;;;;;;;7.03;1.35;;;17.80;99.90;;;;;;4971956;28;20116;-81
2023/09/01 10:51:19;;;;;;;5.68;1.60;;;17.90;99.90;;;;;;4977872;28;20049;-81
2023/09/01 10:53:45;;;;;;;4.60;1.40;;;18.00;99.90;;;;;;4971470;28;20501;-81
2023/09/01 10:56:12;;;;;;;3.80;1.00;;;18.20;99.90;;;;;;4971374;28;20069;-81
2023/09/01 10:58:52;;;;;;;5.93;1.38;;;18.40;99.90;;;;;;4970543;28;20136;-81
2023/09/01 11:01:30;;;;;;;3.85;1.55;;;18.50;99.90;;;;;;4970710;28;20049;-81
2023/09/01 11:04:15;;;;;;;5.25;1.70;;;18.70;99.90;;;;;;4979467;28;20047;-81
2023/09/01 11:06:56;;;;;;;;;;;18.80;99.90;;;;;;4980252;28;20052;-81
2023/09/01 11:09:44;;;;;;;5.22;1.38;;;18.90;99.90;;;;;;4970503;28;19918;-81
2023/09/01 11:12:13;;;;;;;4.38;1.17;;;19.10;99.90;;;;;;4969984;28;20457;-81
2023/09/01 11:14:56;;;;;;;5.15;1.60;;;19.20;99.90;;;;;;4970957;28;20034;-81
2023/09/01 11:17:45;;;;;;;5.68;1.65;;;19.20;99.90;;;;;;4971365;28;20038;-81
2023/09/01 11:20:13;;;;;;;4.53;1.63;;;19.30;99.90;;;;;;4969625;28;20046;-81
2023/09/01 11:22:41;;;;;;;5.97;1.67;;;19.50;99.90;;;;;;4976811;28;20039;-81
2023/09/01 11:25:13;;;;;;;6.78;2.13;;;19.70;99.90;;;;;;4969679;28;20042;-81
2023/09/01 11:27:42;;;;;;;10.13;2.30;;;19.70;99.90;;;;;;4970734;28;20043;-81
2023/09/01 11:30:09;;;;;;;6.28;2.67;;;19.80;99.90;;;;;;4970825;28;20060;-81
2023/09/01 11:32:35;;;;;;;6.22;2.53;;;19.80;99.90;;;;;;4970517;28;20042;-81
2023/09/01 11:35:03;;;;;;;5.60;2.17;;;19.80;99.90;;;;;;4971168;28;20038;-81
2023/09/01 11:37:35;;;;;;;9.20;2.40;;;19.80;99.90;;;;;;4985620;28;20112;-81
2023/09/01 11:40:04;;;;;;;6.47;2.65;;;19.80;99.90;;;;;;4970919;28;20038;-82
2023/09/01 11:42:32;;;;;;;15.85;3.72;;;19.80;99.90;;;;;;4970402;28;20031;-81
2023/09/01 11:44:58;;;;;;;6.80;3.17;;;20.00;99.90;;;;;;4973903;28;20054;-81
2023/09/01 11:47:25;;;;;;;11.55;3.67;;;20.10;99.90;;;;;;4972266;28;20039;-80
2023/09/01 11:49:51;;;;;;;6.78;3.40;;;20.20;99.90;;;;;;4974534;28;20042;-81
2023/09/01 11:52:16;;;;;;;8.50;3.78;;;20.40;99.90;;;;;;4980202;28;20085;-81
2023/09/01 11:54:42;;;;;;;8.63;3.53;;;20.50;99.90;;;;;;4978661;28;20046;-81
2023/09/01 11:57:13;;;;;;;7.00;3.53;;;20.50;99.90;;;;;;4972588;28;20053;-81
2023/09/01 11:59:45;;;;;;;7.28;3.67;;;20.50;99.90;;;;;;4974192;28;20046;-81
2023/09/01 12:02:20;;;;;;;6.72;2.78;;;20.60;99.90;;;;;;4977525;28;20030;-81
2023/09/01 12:04:50;;;;;;;9.27;5.20;;;20.60;99.90;;;;;;4977929;28;20047;-81
2023/09/01 12:07:24;;;;;;;10.02;4.85;;;20.60;99.90;;;;;;4974250;28;20035;-81
2023/09/01 12:09:51;;;;;;;10.15;5.35;;;20.80;99.90;;;;;;4977973;28;20035;-81
2023/09/01 12:12:16;;;;;;;7.90;4.38;;;20.80;99.90;;;;;;4973528;28;20117;-81
2023/09/01 12:14:42;;;;;;;10.25;4.10;;;20.80;99.90;;;;;;4974321;28;20158;-81
2023/09/01 12:17:18;;;;;;;8.70;4.07;;;21.00;99.90;;;;;;4973997;28;20525;-81
2023/09/01 12:19:52;;;;;;;8.55;5.03;;;21.20;99.90;;;;;;4973283;28;20050;-81
2023/09/01 12:22:18;;;;;;;9.80;4.75;;;21.40;99.90;;;;;;4974414;28;20529;-81
2023/09/01 12:24:54;;;;;;;10.30;5.65;;;21.40;99.90;;;;;;4974080;28;20054;-81
2023/09/01 12:27:20;;;;;;;10.98;4.70;;;21.30;99.90;;;;;;4973405;28;20034;-81
2023/09/01 12:29:47;;;;;;;10.90;5.57;;;21.30;99.90;;;;;;4972879;28;20062;-81
2023/09/01 12:32:17;;;;;;;11.30;5.47;;;21.20;99.90;;;;;;4974471;28;20117;-81
2023/09/01 12:34:42;;;;;;;9.57;6.00;;;21.10;99.90;;;;;;4973812;28;20031;-81
2023/09/01 12:37:09;;;;;;;12.13;7.13;;;20.80;99.90;;;;;;4971816;28;20544;-81
2023/09/01 12:39:36;;;;;;;11.00;5.25;;;20.80;99.90;;;;;;4973122;28;20078;-81
2023/09/01 12:42:02;;;;;;;14.60;6.75;;;20.80;99.90;;;;;;4972672;28;20473;-81
2023/09/01 12:44:29;;;;;;;11.80;6.20;;;20.90;99.90;;;;;;4974900;28;20049;-81
2023/09/01 12:46:55;;;;;;;9.23;5.97;;;21.00;99.90;;;;;;4973724;28;20146;-81
2023/09/01 12:49:21;;;;;;;9.52;6.03;;;21.00;99.90;;;;;;4973742;28;20126;-81